Terminal Aerodrome Forecast
Issued by NWS

Home | Current Version | Previous Version | Text Only | Print | Product List | Glossary On
Versions: 1 2 3 4 5 6 7 8 9 10 11 12 13 14 15 16 17 18
000
FTUS46 KPDT 230538
TAFYKM
TAF
KYKM 230538Z 2306/2406 25004KT P6SM SCT100 OVC200
     FM231000 26004KT P6SM SCT080 OVC120
     FM231500 VRB03KT 4SM -SN BKN025 OVC040
     FM231900 VRB04KT P6SM -RA OVC025=

USA.gov is the U.S. government's official web portal to all federal, state and local government web resources and services.